Time;durP1;ratioP1;P1;durP2;ratioP2;P2;SDS_P1;SDS_P2;PMS_P1;PMS_P2;Temp;Humidity;BMP_temperature;BMP_pressure;BME280_temperature;BME280_humidity;BME280_pressure;Samples;Min_cycle;Max_cycle;Signal;HPM_P1;HPM_P2
2021/06/11 00:00:47;;;;;;;60.00;56.50;;;10.80;99.90;;;;;;5093640;28;20046;-50
2021/06/11 00:03:14;;;;;;;58.17;54.78;;;10.70;99.90;;;;;;5093612;28;20030;-51
2021/06/11 00:05:42;;;;;;;56.63;53.33;;;10.70;99.90;;;;;;5093613;28;20020;-48
2021/06/11 00:08:09;;;;;;;52.75;49.65;;;10.70;99.90;;;;;;5093519;28;20024;-51
2021/06/11 00:10:37;;;;;;;52.85;49.85;;;10.90;99.90;;;;;;5093495;28;20526;-49
2021/06/11 00:13:06;;;;;;;51.08;48.25;;;10.90;99.90;;;;;;5093574;28;20028;-51
2021/06/11 00:15:34;;;;;;;51.63;49.03;;;10.90;99.90;;;;;;5093313;28;20028;-50
2021/06/11 00:18:01;;;;;;;46.80;44.50;;;11.00;99.90;;;;;;5093368;28;20039;-52
2021/06/11 00:20:29;;;;;;;48.45;46.05;;;11.00;99.90;;;;;;5092792;28;20508;-46
2021/06/11 00:22:56;;;;;;;44.08;41.78;;;11.20;99.90;;;;;;5093354;28;20020;-53
2021/06/11 00:25:25;;;;;;;45.78;43.47;;;11.30;99.90;;;;;;5093227;28;20024;-49
2021/06/11 00:28:00;;;;;;;47.40;45.03;;;11.40;99.90;;;;;;5093153;28;20356;-50
2021/06/11 00:30:29;;;;;;;46.60;44.20;;;11.40;99.90;;;;;;5093285;28;20027;-46
2021/06/11 00:32:58;;;;;;;45.28;42.97;;;11.50;99.90;;;;;;5093195;28;20489;-51
2021/06/11 00:35:25;;;;;;;42.33;40.22;;;11.50;99.90;;;;;;5093077;28;20031;-48
2021/06/11 00:37:53;;;;;;;42.03;39.92;;;11.40;99.90;;;;;;5093031;28;20020;-51
2021/06/11 00:40:20;;;;;;;42.58;40.58;;;11.60;99.90;;;;;;5092979;28;20392;-50
2021/06/11 00:42:47;;;;;;;40.63;38.70;;;11.70;99.90;;;;;;5092579;28;20023;-52
2021/06/11 00:45:16;;;;;;;40.78;38.88;;;11.60;99.90;;;;;;5092970;28;20024;-51
2021/06/11 00:47:45;;;;;;;37.83;36.13;;;11.60;99.90;;;;;;5092538;28;20032;-47
2021/06/11 00:50:16;;;;;;;38.03;36.33;;;11.80;99.90;;;;;;5092664;28;20050;-49
2021/06/11 00:52:43;;;;;;;35.55;33.95;;;11.90;99.90;;;;;;5093005;28;20540;-50
2021/06/11 00:55:11;;;;;;;35.72;34.13;;;11.80;99.90;;;;;;5092880;28;20047;-52
2021/06/11 00:57:38;;;;;;;35.58;33.88;;;11.90;99.90;;;;;;5092914;28;20062;-47
2021/06/11 01:00:07;;;;;;;35.90;34.08;;;12.00;99.90;;;;;;5092787;28;20016;-48
2021/06/11 01:02:34;;;;;;;32.00;30.42;;;12.10;99.90;;;;;;5092731;28;20028;-51
2021/06/11 01:05:02;;;;;;;32.88;31.27;;;12.00;99.90;;;;;;5092889;28;20115;-48
2021/06/11 01:07:29;;;;;;;34.50;32.80;;;12.30;99.90;;;;;;5091339;28;20435;-51
2021/06/11 01:09:57;;;;;;;33.53;32.03;;;12.20;99.90;;;;;;5092766;28;20099;-50
2021/06/11 01:12:24;;;;;;;35.05;33.45;;;12.20;99.90;;;;;;5092678;28;20021;-49
2021/06/11 01:14:53;;;;;;;34.13;32.63;;;12.30;99.90;;;;;;5092836;28;20078;-52
2021/06/11 01:17:21;;;;;;;33.30;31.75;;;12.40;99.90;;;;;;5092722;28;20035;-50
2021/06/11 01:19:50;;;;;;;32.95;31.45;;;12.50;99.90;;;;;;5092608;28;20025;-50
2021/06/11 01:22:22;;;;;;;30.95;29.55;;;12.60;99.90;;;;;;5092178;28;20496;-48
2021/06/11 01:25:09;;;;;;;31.48;30.05;;;12.60;99.90;;;;;;5092410;28;20503;-51
2021/06/11 01:27:38;;;;;;;31.45;30.05;;;12.80;99.90;;;;;;5092195;28;20016;-49
2021/06/11 01:30:18;;;;;;;28.77;27.52;;;12.90;99.90;;;;;;5092293;28;20035;-52
2021/06/11 01:32:48;;;;;;;29.00;27.70;;;12.80;99.90;;;;;;5096479;28;20017;-49
2021/06/11 01:35:21;;;;;;;28.90;27.50;;;12.70;99.90;;;;;;5096314;28;20035;-52
2021/06/11 01:37:57;;;;;;;25.25;24.05;;;12.80;99.90;;;;;;5096362;28;20031;-50
2021/06/11 01:40:24;;;;;;;27.15;25.77;;;12.90;99.90;;;;;;5096199;28;20024;-51
2021/06/11 01:42:54;;;;;;;26.88;25.58;;;13.00;99.90;;;;;;5096112;28;20024;-52
2021/06/11 01:45:22;;;;;;;24.70;23.60;;;13.00;99.90;;;;;;5096226;28;20028;-52
2021/06/11 01:47:53;;;;;;;25.70;24.50;;;12.90;99.90;;;;;;5096123;28;20032;-48
2021/06/11 01:50:24;;;;;;;26.40;25.20;;;13.00;99.90;;;;;;5096197;28;20023;-50
2021/06/11 01:52:54;;;;;;;25.23;24.02;;;13.00;99.90;;;;;;5096171;28;20028;-52
2021/06/11 01:55:22;;;;;;;25.75;24.45;;;13.00;99.90;;;;;;5096366;28;20107;-54
2021/06/11 01:57:50;;;;;;;27.88;26.67;;;13.00;99.90;;;;;;5094695;28;20032;-51
2021/06/11 02:00:18;;;;;;;27.45;26.35;;;13.10;99.90;;;;;;5095974;28;20496;-51
2021/06/11 02:02:47;;;;;;;26.58;25.38;;;13.20;99.90;;;;;;5095787;28;20431;-52
2021/06/11 02:05:15;;;;;;;26.00;24.90;;;13.40;99.90;;;;;;5095863;28;20024;-53
2021/06/11 02:07:44;;;;;;;25.83;24.65;;;13.30;99.90;;;;;;5096030;28;20028;-52
2021/06/11 02:10:13;;;;;;;25.98;24.77;;;13.50;99.90;;;;;;5095789;28;20020;-53
2021/06/11 02:12:41;;;;;;;24.35;23.25;;;13.70;99.90;;;;;;5095728;28;20024;-51
2021/06/11 02:15:10;;;;;;;23.75;22.60;;;13.90;99.90;;;;;;5095705;28;20020;-48
2021/06/11 02:17:46;;;;;;;21.83;20.85;;;13.90;99.90;;;;;;5095737;28;20031;-53
2021/06/11 02:20:16;;;;;;;21.38;20.38;;;13.90;99.90;;;;;;5095632;28;20024;-51
2021/06/11 02:22:45;;;;;;;20.83;19.92;;;14.00;99.90;;;;;;5095582;28;20536;-53
2021/06/11 02:25:15;;;;;;;19.48;18.67;;;14.20;99.90;;;;;;5095464;28;20024;-49
2021/06/11 02:27:43;;;;;;;20.20;19.10;;;14.30;99.90;;;;;;5095332;28;20032;-50
2021/06/11 02:30:17;;;;;;;18.23;17.42;;;14.50;99.90;;;;;;5093928;28;20031;-53
2021/06/11 02:32:45;;;;;;;16.10;15.40;;;14.50;99.90;;;;;;5095405;28;20504;-52
2021/06/11 02:35:23;;;;;;;16.50;15.80;;;14.40;99.90;;;;;;5095292;28;20049;-52
2021/06/11 02:37:52;;;;;;;16.35;15.65;;;14.40;99.90;;;;;;5095253;28;20036;-52
2021/06/11 02:40:19;;;;;;;15.90;15.30;;;14.50;99.90;;;;;;5095508;28;20376;-48
2021/06/11 02:42:57;;;;;;;15.13;14.52;;;14.60;99.90;;;;;;5094482;28;20544;-53
2021/06/11 02:45:33;;;;;;;13.90;13.40;;;14.70;99.90;;;;;;5095256;28;20028;-53
2021/06/11 02:48:08;;;;;;;13.85;13.30;;;14.60;99.90;;;;;;5094953;28;20052;-52
2021/06/11 02:50:44;;;;;;;14.25;13.65;;;14.40;99.90;;;;;;5095385;28;20031;-51
2021/06/11 02:53:14;;;;;;;12.70;12.20;;;14.60;99.90;;;;;;5094988;28;20028;-51
2021/06/11 02:55:46;;;;;;;10.57;10.23;;;14.80;99.90;;;;;;5094941;28;20028;-53
2021/06/11 02:58:17;;;;;;;11.02;10.63;;;14.90;99.90;;;;;;5094743;28;20101;-52
2021/06/11 03:00:45;;;;;;;9.70;9.38;;;14.80;99.90;;;;;;5094820;28;20023;-53
2021/06/11 03:03:28;;;;;;;9.50;9.15;;;14.90;99.90;;;;;;5093311;28;20457;-50
2021/06/11 03:06:00;;;;;;;8.82;8.43;;;15.10;99.90;;;;;;5094584;28;20031;-51
2021/06/11 03:08:31;;;;;;;8.40;8.10;;;15.00;99.90;;;;;;5093191;28;20118;-50
2021/06/11 03:11:08;;;;;;;8.32;8.02;;;15.10;99.90;;;;;;5094565;28;20095;-50
2021/06/11 03:13:37;;;;;;;7.70;7.40;;;15.10;99.90;;;;;;5093296;28;20081;-51
2021/06/11 03:16:04;;;;;;;6.20;6.00;;;15.20;99.90;;;;;;5094591;28;20020;-49
2021/06/11 03:18:46;;;;;;;7.18;6.97;;;15.00;99.90;;;;;;5094361;28;20016;-49
2021/06/11 03:21:13;;;;;;;5.70;5.50;;;14.90;99.90;;;;;;5094538;28;20024;-50
2021/06/11 03:24:16;;;;;;;5.85;5.63;;;15.00;99.90;;;;;;5094481;28;20035;-50
2021/06/11 03:27:17;;;;;;;4.95;4.75;;;15.00;99.90;;;;;;5061843;28;20066;-49
2021/06/11 03:29:56;;;;;;;5.20;5.00;;;15.10;99.90;;;;;;5068464;28;20103;-53
2021/06/11 03:32:32;;;;;;;4.90;4.80;;;14.80;99.90;;;;;;5094278;28;20024;-47
2021/06/11 03:35:03;;;;;;;5.97;5.78;;;14.60;99.90;;;;;;5094454;28;20020;-51
2021/06/11 03:37:32;;;;;;;5.40;5.20;;;14.60;99.90;;;;;;5094107;28;20506;-53
2021/06/11 03:40:07;;;;;;;5.85;5.60;;;14.80;99.90;;;;;;5094395;28;20074;-49
2021/06/11 03:42:37;;;;;;;5.60;5.40;;;14.80;99.90;;;;;;5093995;28;20027;-49
2021/06/11 03:45:05;;;;;;;5.60;5.30;;;14.90;99.90;;;;;;5093889;28;20058;-51
2021/06/11 03:47:36;;;;;;;5.68;5.47;;;14.80;99.90;;;;;;5093806;28;20377;-51
2021/06/11 03:50:05;;;;;;;6.10;5.90;;;14.90;99.90;;;;;;5094102;28;20012;-52
2021/06/11 03:52:37;;;;;;;6.10;5.90;;;15.00;99.90;;;;;;5093928;28;20074;-52
2021/06/11 03:55:26;;;;;;;5.30;5.10;;;15.10;99.90;;;;;;5093063;28;20016;-51
2021/06/11 03:58:11;;;;;;;5.95;5.72;;;15.30;99.90;;;;;;5093916;28;20020;-50
2021/06/11 04:00:42;;;;;;;5.20;5.00;;;15.20;99.90;;;;;;5093739;28;20030;-53
2021/06/11 04:03:10;;;;;;;5.25;4.95;;;15.00;99.90;;;;;;5092559;28;20548;-52
2021/06/11 04:05:38;;;;;;;5.10;4.90;;;15.00;99.90;;;;;;5093605;28;20020;-53
2021/06/11 04:08:11;;;;;;;4.65;4.45;;;14.90;99.90;;;;;;5093220;28;20031;-50
2021/06/11 04:10:58;;;;;;;5.68;5.47;;;15.10;99.90;;;;;;5093700;28;20020;-54
2021/06/11 04:13:48;;;;;;;6.43;6.22;;;15.20;99.90;;;;;;5093620;28;20095;-50
2021/06/11 04:16:48;;;;;;;6.10;5.90;;;15.20;99.90;;;;;;5093530;28;20020;-53
2021/06/11 04:19:27;;;;;;;4.85;4.68;;;15.20;99.90;;;;;;5086811;28;20034;-49
2021/06/11 04:21:57;;;;;;;5.50;5.30;;;15.20;99.90;;;;;;5093216;28;20016;-51
2021/06/11 04:24:32;;;;;;;5.20;5.00;;;15.10;99.90;;;;;;5093402;28;20149;-51
2021/06/11 04:27:01;;;;;;;5.13;4.90;;;15.10;99.90;;;;;;5093325;28;20114;-49
2021/06/11 04:29:31;;;;;;;6.03;5.50;;;15.10;99.90;;;;;;5092131;28;20028;-52
2021/06/11 04:31:59;;;;;;;5.68;5.47;;;15.00;99.90;;;;;;5093382;28;20427;-52
2021/06/11 04:34:27;;;;;;;5.93;5.72;;;15.00;99.90;;;;;;5093234;28;20027;-51
2021/06/11 04:36:55;;;;;;;6.50;6.20;;;14.90;99.90;;;;;;5093249;28;20389;-52
2021/06/11 04:39:22;;;;;;;6.00;5.80;;;14.90;99.90;;;;;;5093166;28;20023;-50
2021/06/11 04:41:50;;;;;;;5.13;4.93;;;14.90;99.90;;;;;;5093117;28;20050;-52
2021/06/11 04:44:17;;;;;;;5.50;5.30;;;15.00;99.90;;;;;;5092891;28;20055;-52
2021/06/11 04:46:45;;;;;;;5.22;4.95;;;15.00;99.90;;;;;;5093068;28;20089;-52
2021/06/11 04:49:12;;;;;;;4.55;4.35;;;15.00;99.90;;;;;;5093437;28;20130;-52
2021/06/11 04:51:39;;;;;;;4.60;4.40;;;14.90;99.90;;;;;;5093096;28;20408;-51
2021/06/11 04:54:07;;;;;;;4.80;4.60;;;14.90;99.90;;;;;;5092966;28;20020;-52
2021/06/11 04:56:35;;;;;;;4.90;4.70;;;14.90;99.90;;;;;;5092894;28;20024;-52
2021/06/11 04:59:03;;;;;;;4.72;4.53;;;14.90;99.90;;;;;;5092777;28;20099;-52
2021/06/11 05:01:31;;;;;;;5.30;5.10;;;14.80;99.90;;;;;;5092948;28;20028;-52
2021/06/11 05:03:58;;;;;;;5.20;5.00;;;14.80;99.90;;;;;;5093014;28;20028;-51
2021/06/11 05:06:26;;;;;;;4.85;4.65;;;14.80;99.90;;;;;;5096081;28;20024;-53
2021/06/11 05:08:53;;;;;;;5.30;5.10;;;14.80;99.90;;;;;;5096782;28;20062;-49
2021/06/11 05:11:21;;;;;;;5.60;5.40;;;14.80;99.90;;;;;;5096952;28;20103;-53
2021/06/11 05:13:48;;;;;;;5.20;5.00;;;14.80;99.90;;;;;;5097075;28;20394;-52
2021/06/11 05:16:16;;;;;;;5.38;5.03;;;14.80;99.90;;;;;;5096870;28;20020;-50
2021/06/11 05:18:43;;;;;;;5.10;4.80;;;14.80;99.90;;;;;;5096716;28;20032;-51
2021/06/11 05:21:11;;;;;;;4.90;4.60;;;14.90;99.90;;;;;;5096752;28;20028;-53
2021/06/11 05:23:38;;;;;;;4.82;4.63;;;14.90;99.90;;;;;;5096796;28;20469;-49
2021/06/11 05:26:06;;;;;;;5.30;4.90;;;14.90;99.90;;;;;;5096987;28;20065;-51
2021/06/11 05:28:33;;;;;;;5.00;4.70;;;14.90;99.90;;;;;;5096558;28;20012;-52
2021/06/11 05:31:00;;;;;;;4.53;4.22;;;15.00;99.90;;;;;;5096513;28;20481;-49
2021/06/11 05:33:27;;;;;;;4.70;4.40;;;15.00;99.90;;;;;;5096728;28;20051;-53
2021/06/11 05:35:55;;;;;;;4.60;4.40;;;15.00;99.90;;;;;;5096413;28;20024;-50
2021/06/11 05:38:22;;;;;;;4.60;4.40;;;15.00;99.90;;;;;;5096446;28;20142;-49
2021/06/11 05:40:50;;;;;;;4.75;4.55;;;15.00;99.90;;;;;;5096515;28;20035;-48
2021/06/11 05:43:17;;;;;;;4.07;3.88;;;15.00;99.90;;;;;;5096224;28;20487;-54
2021/06/11 05:45:44;;;;;;;4.15;4.00;;;15.00;99.90;;;;;;5096260;28;20046;-49
2021/06/11 05:48:12;;;;;;;4.10;3.90;;;15.00;99.90;;;;;;5095928;28;20034;-53
2021/06/11 05:50:39;;;;;;;4.10;3.90;;;15.00;99.90;;;;;;5095998;28;20381;-56
2021/06/11 05:53:09;;;;;;;4.05;3.83;;;15.00;99.90;;;;;;5096097;28;20544;-54
2021/06/11 05:55:37;;;;;;;4.32;4.10;;;15.00;99.90;;;;;;5096238;28;20384;-51
2021/06/11 05:58:04;;;;;;;4.28;4.07;;;15.00;99.90;;;;;;5096041;28;20020;-53
2021/06/11 06:00:32;;;;;;;4.63;4.43;;;14.90;99.90;;;;;;5096034;28;20058;-53
2021/06/11 06:02:59;;;;;;;4.78;4.57;;;14.80;99.90;;;;;;5096140;28;20104;-54
2021/06/11 06:05:27;;;;;;;4.90;4.60;;;14.80;99.90;;;;;;5095831;28;20024;-51
2021/06/11 06:07:54;;;;;;;4.40;4.10;;;14.80;99.90;;;;;;5094543;28;20059;-51
2021/06/11 06:10:21;;;;;;;4.80;4.50;;;14.80;99.90;;;;;;5095737;28;20150;-52
2021/06/11 06:12:48;;;;;;;4.80;4.50;;;14.80;99.90;;;;;;5095592;28;20030;-54
2021/06/11 06:15:16;;;;;;;5.40;4.97;;;14.70;99.90;;;;;;5095644;28;20016;-52
2021/06/11 06:17:43;;;;;;;8.27;6.18;;;14.60;99.90;;;;;;5094483;28;20364;-54
2021/06/11 06:20:12;;;;;;;5.57;5.18;;;14.60;99.90;;;;;;5095475;28;20027;-49
2021/06/11 06:22:40;;;;;;;8.13;7.32;;;14.50;99.90;;;;;;5095530;28;20016;-51
2021/06/11 06:25:08;;;;;;;17.63;16.02;;;14.50;99.90;;;;;;5095581;28;20020;-53
2021/06/11 06:27:37;;;;;;;15.95;14.80;;;14.30;99.90;;;;;;5095566;28;20481;-53
2021/06/11 06:30:09;;;;;;;7.60;7.20;;;14.10;99.90;;;;;;5095493;28;20358;-50
2021/06/11 06:32:37;;;;;;;7.65;7.22;;;14.00;99.90;;;;;;5095427;28;20016;-52
2021/06/11 06:35:06;;;;;;;8.68;8.18;;;13.90;99.90;;;;;;5095379;28;20028;-51
2021/06/11 06:37:33;;;;;;;6.40;6.10;;;13.70;99.90;;;;;;5093964;28;20024;-52
2021/06/11 06:40:01;;;;;;;6.70;6.40;;;13.70;99.90;;;;;;5095205;28;20020;-51
2021/06/11 06:42:28;;;;;;;6.50;6.20;;;13.60;99.90;;;;;;5095281;28;20481;-50
2021/06/11 06:44:56;;;;;;;6.28;5.97;;;13.60;99.90;;;;;;5094998;28;20044;-50
2021/06/11 06:47:23;;;;;;;6.68;6.38;;;13.60;99.90;;;;;;5094915;28;20032;-54
2021/06/11 06:49:51;;;;;;;9.32;8.63;;;13.60;99.90;;;;;;5094960;28;20504;-53
2021/06/11 06:52:19;;;;;;;7.60;7.10;;;13.60;99.90;;;;;;5093709;28;20142;-51
2021/06/11 06:54:49;;;;;;;6.93;6.53;;;13.70;99.90;;;;;;5095086;28;20035;-52
2021/06/11 06:57:17;;;;;;;10.52;9.73;;;13.70;99.90;;;;;;5094896;28;20024;-53
2021/06/11 06:59:44;;;;;;;73.78;62.28;;;13.70;99.90;;;;;;5094918;28;20139;-49
2021/06/11 07:02:11;;;;;;;32.05;28.77;;;13.70;99.90;;;;;;5094903;28;20428;-51
2021/06/11 07:04:39;;;;;;;11.63;10.82;;;13.60;99.90;;;;;;5094635;28;20020;-52
2021/06/11 07:07:08;;;;;;;8.18;7.68;;;13.70;99.90;;;;;;5094732;28;20024;-52
2021/06/11 07:09:35;;;;;;;6.97;6.57;;;13.70;99.90;;;;;;5094727;28;20049;-50
2021/06/11 07:12:03;;;;;;;9.38;8.77;;;13.60;99.90;;;;;;5094719;28;20020;-51
2021/06/11 07:14:30;;;;;;;8.32;7.82;;;13.60;99.90;;;;;;5094942;28;20024;-53
2021/06/11 07:16:57;;;;;;;9.68;8.85;;;13.60;99.90;;;;;;5094594;28;20050;-52
2021/06/11 07:19:24;;;;;;;7.13;6.72;;;13.60;99.90;;;;;;5094483;28;20431;-55
2021/06/11 07:21:52;;;;;;;7.45;7.00;;;13.50;99.90;;;;;;5094462;28;20028;-52
2021/06/11 07:24:19;;;;;;;7.10;6.63;;;13.50;99.90;;;;;;5094334;28;20028;-52
2021/06/11 07:26:46;;;;;;;7.95;7.43;;;13.50;99.90;;;;;;5094429;28;20166;-54
2021/06/11 07:29:14;;;;;;;7.70;7.10;;;13.10;99.90;;;;;;5094218;28;20388;-49
2021/06/11 07:31:41;;;;;;;12.90;11.60;;;13.60;99.90;;;;;;5092854;28;20031;-49
2021/06/11 07:34:09;;;;;;;8.63;7.93;;;13.60;99.90;;;;;;5094238;28;20020;-50
2021/06/11 07:36:36;;;;;;;11.70;10.63;;;13.70;99.90;;;;;;5094190;28;20023;-50
2021/06/11 07:39:04;;;;;;;8.13;7.63;;;13.70;99.90;;;;;;5094180;28;20024;-51
2021/06/11 07:41:31;;;;;;;7.95;7.22;;;13.80;99.90;;;;;;5094172;28;20024;-50
2021/06/11 07:43:59;;;;;;;7.53;7.00;;;13.80;99.90;;;;;;5093899;28;20046;-50
2021/06/11 07:46:26;;;;;;;6.82;6.22;;;13.90;99.90;;;;;;5093764;28;20024;-54
2021/06/11 07:48:53;;;;;;;13.77;12.57;;;14.00;99.90;;;;;;5093924;28;20019;-53
2021/06/11 07:51:21;;;;;;;10.15;9.35;;;14.00;99.90;;;;;;5093877;28;20024;-47
2021/06/11 07:53:48;;;;;;;8.55;7.85;;;13.90;99.90;;;;;;5093983;28;20095;-55
2021/06/11 07:56:15;;;;;;;10.85;9.95;;;13.90;99.90;;;;;;5093983;28;20030;-54
2021/06/11 07:58:43;;;;;;;8.90;8.27;;;13.90;99.90;;;;;;5094214;28;20047;-54
2021/06/11 08:01:10;;;;;;;62.33;51.25;;;13.90;99.90;;;;;;5093683;28;20062;-52
2021/06/11 08:03:38;;;;;;;12.35;11.25;;;13.80;99.90;;;;;;5093633;28;20104;-52
2021/06/11 08:06:05;;;;;;;26.10;23.42;;;13.80;99.90;;;;;;5093605;28;20039;-53
2021/06/11 08:08:33;;;;;;;11.23;10.13;;;13.70;99.90;;;;;;5093658;28;20405;-55
2021/06/11 08:11:02;;;;;;;18.20;16.40;;;13.70;99.90;;;;;;5093611;28;20404;-55
2021/06/11 08:13:29;;;;;;;9.10;8.20;;;13.70;99.90;;;;;;5093599;28;20024;-54
2021/06/11 08:15:57;;;;;;;8.18;7.47;;;13.60;99.90;;;;;;5093590;28;20020;-52
2021/06/11 08:18:25;;;;;;;8.00;7.50;;;13.50;99.90;;;;;;5093558;28;20024;-56
2021/06/11 08:20:52;;;;;;;9.80;8.82;;;13.50;99.90;;;;;;5093272;28;20111;-57
2021/06/11 08:23:20;;;;;;;8.15;7.45;;;13.40;99.90;;;;;;5093327;28;20024;-53
2021/06/11 08:25:47;;;;;;;7.50;6.93;;;13.40;99.90;;;;;;5093503;28;20085;-50
2021/06/11 08:28:14;;;;;;;7.28;6.78;;;13.40;99.90;;;;;;5093397;28;20384;-50
2021/06/11 08:30:42;;;;;;;7.07;6.63;;;13.30;99.90;;;;;;5093298;28;20091;-50
2021/06/11 08:33:09;;;;;;;7.80;7.30;;;13.30;99.90;;;;;;5093196;28;20086;-52
2021/06/11 08:35:37;;;;;;;8.13;7.53;;;13.20;99.90;;;;;;5093177;28;20021;-50
2021/06/11 08:38:05;;;;;;;8.05;7.45;;;13.00;99.90;;;;;;5093203;28;20021;-51
2021/06/11 08:40:33;;;;;;;19.30;17.60;;;12.90;99.90;;;;;;5092585;28;20055;-52
2021/06/11 08:43:00;;;;;;;24.48;22.08;;;12.80;99.90;;;;;;5092921;28;20077;-52
2021/06/11 08:45:28;;;;;;;15.25;14.00;;;12.50;99.90;;;;;;5093108;28;20057;-49
2021/06/11 08:47:55;;;;;;;14.02;12.93;;;12.40;99.90;;;;;;5092953;28;20040;-52
2021/06/11 08:50:29;;;;;;;13.07;12.18;;;12.20;99.90;;;;;;5092923;28;20049;-49
2021/06/11 08:52:58;;;;;;;14.25;13.55;;;12.10;99.90;;;;;;5093009;28;20445;-54
2021/06/11 08:55:26;;;;;;;16.40;15.48;;;11.80;99.90;;;;;;5092997;28;20338;-51
2021/06/11 08:57:54;;;;;;;15.02;14.23;;;11.60;99.90;;;;;;5093030;28;20388;-52
2021/06/11 09:00:22;;;;;;;16.38;15.27;;;11.60;99.90;;;;;;5092765;28;20062;-47
2021/06/11 09:03:11;;;;;;;16.55;15.63;;;11.60;99.90;;;;;;5092855;28;20024;-52
2021/06/11 09:05:59;;;;;;;16.40;15.55;;;11.60;99.90;;;;;;5093194;28;20380;-54
2021/06/11 09:08:28;;;;;;;16.30;15.50;;;11.70;99.90;;;;;;5092769;28;20059;-53
2021/06/11 09:11:18;;;;;;;17.20;16.30;;;11.80;99.90;;;;;;5092882;28;20020;-49
2021/06/11 09:13:49;;;;;;;18.05;17.00;;;11.70;99.90;;;;;;5093204;28;20062;-51
2021/06/11 09:16:25;;;;;;;18.77;17.77;;;11.60;99.90;;;;;;5092963;28;20028;-51
2021/06/11 09:18:58;;;;;;;18.25;17.30;;;11.50;99.90;;;;;;5092749;28;20017;-52
2021/06/11 09:21:45;;;;;;;16.95;16.10;;;11.40;99.90;;;;;;5092628;28;20031;-53
2021/06/11 09:24:33;;;;;;;18.50;17.42;;;11.50;99.90;;;;;;5092730;28;20035;-54
2021/06/11 09:27:05;;;;;;;17.83;16.83;;;11.40;99.90;;;;;;5092759;28;20060;-52
2021/06/11 09:29:55;;;;;;;17.55;16.65;;;11.30;99.90;;;;;;5092645;28;20099;-50
2021/06/11 09:32:30;;;;;;;17.97;17.10;;;11.30;99.90;;;;;;5092711;28;20111;-51
2021/06/11 09:35:06;;;;;;;18.20;17.08;;;11.20;99.90;;;;;;5092568;28;20024;-51
2021/06/11 09:37:40;;;;;;;18.20;17.20;;;11.20;99.90;;;;;;5092615;28;20024;-47
2021/06/11 09:40:12;;;;;;;18.23;17.30;;;11.30;99.90;;;;;;5092540;28;20027;-48
2021/06/11 09:42:44;;;;;;;19.25;18.13;;;11.30;99.90;;;;;;5092463;28;20028;-47
2021/06/11 09:45:13;;;;;;;19.30;18.17;;;11.20;99.90;;;;;;5092700;28;20114;-53
2021/06/11 09:47:48;;;;;;;20.63;19.40;;;11.10;99.90;;;;;;5092298;28;20035;-50
2021/06/11 09:50:23;;;;;;;20.17;19.08;;;11.10;99.90;;;;;;5092430;28;20040;-50
2021/06/11 09:53:06;;;;;;;20.88;19.67;;;11.00;99.90;;;;;;5094757;28;20109;-48
2021/06/11 09:55:49;;;;;;;21.30;20.10;;;11.00;99.90;;;;;;5096160;28;20048;-48
2021/06/11 09:58:19;;;;;;;22.83;21.40;;;10.90;99.90;;;;;;5096151;28;20020;-49
2021/06/11 10:00:57;;;;;;;22.08;20.88;;;10.80;99.90;;;;;;5096188;28;20020;-57
2021/06/11 10:03:30;;;;;;;22.95;21.75;;;10.70;99.90;;;;;;5096031;28;20493;-56
2021/06/11 10:06:02;;;;;;;23.30;22.13;;;10.70;99.90;;;;;;5096079;28;20035;-56
2021/06/11 10:08:30;;;;;;;24.58;23.20;;;10.50;99.90;;;;;;5096155;28;20452;-57
2021/06/11 10:10:59;;;;;;;23.92;22.52;;;10.50;99.90;;;;;;5096049;28;20074;-54
2021/06/11 10:13:27;;;;;;;23.70;22.50;;;10.50;99.90;;;;;;5095930;28;20019;-53
2021/06/11 10:15:57;;;;;;;21.23;20.13;;;10.60;99.90;;;;;;5095901;28;20095;-54
2021/06/11 10:18:25;;;;;;;20.45;19.45;;;10.80;99.90;;;;;;5095759;28;20051;-53
2021/06/11 10:20:53;;;;;;;19.08;18.17;;;10.90;99.90;;;;;;5095552;28;20036;-57
2021/06/11 10:23:24;;;;;;;19.20;18.30;;;10.90;99.90;;;;;;5095838;28;20472;-55
2021/06/11 10:25:54;;;;;;;19.77;18.77;;;10.90;99.90;;;;;;5095871;28;20018;-53
2021/06/11 10:28:39;;;;;;;19.15;18.15;;;11.00;99.90;;;;;;5095564;28;20028;-55
2021/06/11 10:31:19;;;;;;;18.58;17.73;;;10.90;99.90;;;;;;5094442;28;20027;-52
2021/06/11 10:33:46;;;;;;;20.25;19.10;;;10.90;99.90;;;;;;5095651;28;20049;-57
2021/06/11 10:36:26;;;;;;;18.13;17.33;;;10.80;99.90;;;;;;5095386;28;20031;-54
2021/06/11 10:39:05;;;;;;;18.33;17.42;;;10.80;99.90;;;;;;5095748;28;20031;-53
2021/06/11 10:42:03;;;;;;;17.77;17.00;;;10.80;99.90;;;;;;5095436;28;20030;-56
2021/06/11 10:44:35;;;;;;;17.25;16.55;;;10.80;99.90;;;;;;5095037;28;20044;-57
2021/06/11 10:47:20;;;;;;;17.45;16.75;;;10.80;99.90;;;;;;5095113;28;20054;-55
2021/06/11 10:50:10;;;;;;;17.95;17.05;;;10.80;99.90;;;;;;5095484;28;20020;-56
2021/06/11 10:52:52;;;;;;;17.67;16.88;;;10.70;99.90;;;;;;5095154;28;20031;-57
2021/06/11 10:55:21;;;;;;;18.50;17.65;;;10.70;99.90;;;;;;5095035;28;20097;-54
2021/06/11 10:57:59;;;;;;;18.42;17.73;;;10.70;99.90;;;;;;5095048;28;20085;-55
2021/06/11 11:00:38;;;;;;;19.20;18.38;;;10.60;99.90;;;;;;5095277;28;20035;-55
2021/06/11 11:03:08;;;;;;;18.95;18.08;;;10.50;99.90;;;;;;5094638;28;20023;-52
2021/06/11 11:05:41;;;;;;;18.38;17.58;;;10.50;99.90;;;;;;5095024;28;20016;-51
2021/06/11 11:08:12;;;;;;;18.67;17.88;;;10.50;99.90;;;;;;5094676;28;20043;-54
2021/06/11 11:10:47;;;;;;;19.52;18.63;;;10.50;99.90;;;;;;5094849;28;20058;-53
2021/06/11 11:13:28;;;;;;;19.08;18.23;;;10.50;99.90;;;;;;5094751;28;20020;-54
2021/06/11 11:15:58;;;;;;;19.80;18.90;;;10.50;99.90;;;;;;5093743;28;20027;-56
2021/06/11 11:18:34;;;;;;;20.33;19.42;;;10.50;99.90;;;;;;5094572;28;20039;-55
2021/06/11 11:21:22;;;;;;;20.50;19.55;;;10.40;99.90;;;;;;5094575;28;20032;-55
2021/06/11 11:23:54;;;;;;;19.60;18.80;;;10.40;99.90;;;;;;5094780;28;20024;-54
2021/06/11 11:26:39;;;;;;;20.67;19.77;;;10.40;99.90;;;;;;5094314;28;20021;-54
2021/06/11 11:29:07;;;;;;;20.77;19.98;;;10.40;99.90;;;;;;5094375;28;20056;-54
2021/06/11 11:31:35;;;;;;;20.70;19.70;;;10.30;99.90;;;;;;5094135;28;20468;-55
2021/06/11 11:34:03;;;;;;;21.83;20.73;;;10.30;99.90;;;;;;5094331;28;20042;-54
2021/06/11 11:36:32;;;;;;;21.42;20.42;;;10.20;99.90;;;;;;5094479;28;20020;-54
2021/06/11 11:38:59;;;;;;;21.33;20.35;;;10.30;99.90;;;;;;5094237;28;20024;-55
2021/06/11 11:41:27;;;;;;;20.70;19.80;;;10.20;99.90;;;;;;5094186;28;20020;-54
2021/06/11 11:43:54;;;;;;;21.15;20.25;;;10.30;99.90;;;;;;5094391;28;20396;-55
2021/06/11 11:46:22;;;;;;;20.92;20.02;;;10.20;99.90;;;;;;5094002;28;20017;-54
2021/06/11 11:48:49;;;;;;;20.40;19.60;;;10.30;99.90;;;;;;5094008;28;20494;-55
2021/06/11 11:51:18;;;;;;;20.65;19.85;;;10.20;99.90;;;;;;5093915;28;20012;-55
2021/06/11 11:53:47;;;;;;;20.65;19.75;;;10.20;99.90;;;;;;5093972;28;20069;-56
2021/06/11 11:56:14;;;;;;;21.48;20.58;;;10.20;99.90;;;;;;5092734;28;20476;-52
2021/06/11 11:58:41;;;;;;;21.30;20.30;;;10.10;99.90;;;;;;5093717;28;20027;-54
2021/06/11 12:01:09;;;;;;;21.30;20.40;;;10.10;99.90;;;;;;5093813;28;20411;-56
2021/06/11 12:03:36;;;;;;;21.35;20.45;;;10.10;99.90;;;;;;5093784;28;20103;-51
2021/06/11 12:06:04;;;;;;;21.73;20.63;;;10.10;99.90;;;;;;5093749;28;20070;-55
2021/06/11 12:08:31;;;;;;;21.50;20.60;;;10.10;99.90;;;;;;5093616;28;20420;-55
2021/06/11 12:11:01;;;;;;;21.65;20.75;;;10.10;99.90;;;;;;5093809;28;20024;-55
2021/06/11 12:13:29;;;;;;;21.52;20.67;;;10.00;99.90;;;;;;5093740;28;20028;-55
2021/06/11 12:15:57;;;;;;;21.00;20.10;;;10.00;99.90;;;;;;5092840;28;20491;-56
2021/06/11 12:18:24;;;;;;;21.52;20.63;;;10.10;99.90;;;;;;5093613;28;20059;-55
2021/06/11 12:20:52;;;;;;;21.77;20.88;;;10.00;99.90;;;;;;5093588;28;20027;-53
2021/06/11 12:23:19;;;;;;;21.75;20.85;;;10.00;99.90;;;;;;5093622;28;20024;-51
2021/06/11 12:25:46;;;;;;;21.88;20.88;;;9.90;99.90;;;;;;5093613;28;20480;-55
2021/06/11 12:28:14;;;;;;;22.00;21.00;;;10.00;99.90;;;;;;5093514;28;20076;-55
2021/06/11 12:30:42;;;;;;;22.75;21.75;;;10.40;99.90;;;;;;5093836;28;20069;-51
2021/06/11 12:33:09;;;;;;;22.55;21.55;;;10.00;99.90;;;;;;5093794;28;20020;-55
2021/06/11 12:35:37;;;;;;;22.45;21.55;;;9.90;99.90;;;;;;5093482;28;20388;-55
2021/06/11 12:38:04;;;;;;;23.13;22.13;;;9.80;99.90;;;;;;5093439;28;20146;-56
2021/06/11 12:40:32;;;;;;;23.10;22.10;;;9.80;99.90;;;;;;5093397;28;20020;-52
2021/06/11 12:43:08;;;;;;;23.27;22.27;;;9.60;99.90;;;;;;5093260;28;20439;-56
2021/06/11 12:45:36;;;;;;;23.20;22.20;;;9.70;99.90;;;;;;5093468;28;20050;-56
2021/06/11 12:48:03;;;;;;;23.52;22.40;;;9.70;99.90;;;;;;5093379;28;20030;-56
2021/06/11 12:50:31;;;;;;;22.85;21.85;;;9.60;99.90;;;;;;5093314;28;20112;-55
2021/06/11 12:52:58;;;;;;;23.13;22.20;;;9.60;99.90;;;;;;5093325;28;20055;-53